Terminal Aerodrome Forecast
Issued by NWS Grand Forks, ND

Home | Current Version | Previous Version | Graphics & Text | Print | Product List | Glossary On
Versions: 1 2 3 4 5 6 7 8 9 10 11 12 13
000
FTUS43 KFGF 241700
TAFGFK
TAF
KGFK 241725Z 2418/2518 34012G18KT P6SM BKN015
      TEMPO 2418/2420 SCT015
     FM242000 34015KT P6SM FEW250
     FM250100 36006KT P6SM FEW250
     FM250900 36008KT P6SM OVC100=

USA.gov is the U.S. government's official web portal to all federal, state and local government web resources and services.